Time;durP1;ratioP1;P1;durP2;ratioP2;P2;SDS_P1;SDS_P2;PMS_P1;PMS_P2;Temp;Humidity;BMP_temperature;BMP_pressure;BME280_temperature;BME280_humidity;BME280_pressure;Samples;Min_cycle;Max_cycle;Signal;HPM_P1;HPM_P2
2023/02/06 00:01:41;;;;;;;13.02;11.82;;;;;;;0.30;100.00;97729.19;5094712;28;24813;-73
2023/02/06 00:04:07;;;;;;;14.35;13.07;;;;;;;0.31;100.00;97720.72;5092192;28;24468;-73
2023/02/06 00:06:34;;;;;;;13.32;12.02;;;;;;;0.22;100.00;97730.00;5096740;28;24809;-73
2023/02/06 00:09:03;;;;;;;14.23;12.93;;;;;;;0.22;100.00;97730.00;5093054;28;24445;-73
2023/02/06 00:11:29;;;;;;;14.47;12.50;;;;;;;0.30;100.00;97732.63;5103119;28;24465;-73
2023/02/06 00:13:56;;;;;;;15.90;13.88;;;;;;;0.43;100.00;97734.41;5087841;28;24442;-72
2023/02/06 00:16:25;;;;;;;16.90;13.98;;;;;;;0.69;100.00;97721.88;5099096;28;24441;-74
2023/02/06 00:18:53;;;;;;;15.80;13.60;;;;;;;0.41;100.00;97730.16;5096552;28;25088;-73
2023/02/06 00:21:20;;;;;;;15.55;13.93;;;;;;;0.34;100.00;97725.84;5102132;28;24437;-74
2023/02/06 00:23:47;;;;;;;15.63;13.95;;;;;;;0.35;100.00;97732.66;5086620;28;24493;-73
2023/02/06 00:26:15;;;;;;;16.33;14.13;;;;;;;0.26;100.00;97730.00;5090750;28;24434;-73
2023/02/06 00:28:41;;;;;;;15.60;14.00;;;;;;;0.25;100.00;97724.06;5094302;28;24449;-73
2023/02/06 00:31:09;;;;;;;15.57;13.70;;;;;;;0.35;100.00;97727.56;5100529;28;24524;-73
2023/02/06 00:33:35;;;;;;;16.73;14.17;;;;;;;0.43;100.00;97719.13;5101282;28;24483;-73
2023/02/06 00:36:02;;;;;;;14.80;13.30;;;;;;;0.34;100.00;97711.41;5107197;28;24438;-73
2023/02/06 00:38:28;;;;;;;14.85;13.40;;;;;;;0.17;100.00;97718.03;5093832;28;24442;-73
2023/02/06 00:40:55;;;;;;;19.15;14.52;;;;;;;0.23;100.00;97720.66;5093066;28;24436;-74
2023/02/06 00:43:23;;;;;;;21.33;14.63;;;;;;;0.16;100.00;97711.25;5096722;28;24434;-73
2023/02/06 00:45:51;;;;;;;16.40;14.67;;;;;;;0.11;100.00;97715.44;5097925;28;25106;-74
2023/02/06 00:48:17;;;;;;;17.48;15.60;;;;;;;0.14;100.00;97705.28;5096069;28;24442;-73
2023/02/06 00:50:44;;;;;;;21.55;14.18;;;;;;;0.03;100.00;97696.69;5096741;28;24426;-74
2023/02/06 00:53:10;;;;;;;20.73;14.90;;;;;;;-0.04;100.00;97713.59;5097749;28;24445;-74
2023/02/06 00:55:37;;;;;;;19.70;16.35;;;;;;;0.10;100.00;97706.09;5096962;28;24828;-72
2023/02/06 00:58:03;;;;;;;21.42;15.20;;;;;;;0.59;100.00;97704.78;5086393;28;24437;-73
2023/02/06 01:00:31;;;;;;;20.40;16.55;;;;;;;0.60;100.00;97708.22;5096620;28;24473;-73
2023/02/06 01:02:58;;;;;;;19.52;16.08;;;;;;;0.41;100.00;97707.22;5087402;28;24796;-72
2023/02/06 01:05:24;;;;;;;18.80;15.25;;;;;;;0.34;100.00;97723.31;5098777;28;24462;-73
2023/02/06 01:07:51;;;;;;;18.25;16.00;;;;;;;0.38;100.00;97725.88;5083848;28;24437;-73
2023/02/06 01:10:17;;;;;;;20.92;16.70;;;;;;;0.54;100.00;97714.13;5087925;28;24444;-72
2023/02/06 01:12:44;;;;;;;21.47;16.33;;;;;;;0.46;100.00;97716.59;5091873;28;24445;-72
2023/02/06 01:15:12;;;;;;;25.00;16.85;;;;;;;0.36;100.00;97730.09;5095830;28;24430;-73
2023/02/06 01:17:41;;;;;;;16.83;15.15;;;;;;;0.41;100.00;97730.16;5100123;28;24441;-73
2023/02/06 01:20:11;;;;;;;17.52;15.63;;;;;;;0.58;100.00;97728.59;5100761;28;24980;-73
2023/02/06 01:22:38;;;;;;;17.60;14.95;;;;;;;0.46;100.00;97737.00;5095267;28;24441;-72
2023/02/06 01:25:06;;;;;;;18.75;15.38;;;;;;;0.27;100.00;97729.19;5097499;28;24461;-72
2023/02/06 01:27:35;;;;;;;18.23;15.63;;;;;;;0.43;100.00;97729.31;5092545;28;24441;-73
2023/02/06 01:30:02;;;;;;;19.13;17.13;;;;;;;0.32;100.00;97727.53;5094787;28;24437;-73
2023/02/06 01:32:28;;;;;;;22.67;15.70;;;;;;;0.32;100.00;97727.53;5099523;28;24433;-73
2023/02/06 01:34:56;;;;;;;18.05;16.30;;;;;;;0.56;100.00;97722.63;5099729;28;24456;-73
2023/02/06 01:37:22;;;;;;;23.38;18.25;;;;;;;0.46;100.00;97726.81;5101195;28;24430;-73
2023/02/06 01:39:49;;;;;;;24.37;18.60;;;;;;;0.26;100.00;97722.34;5091014;28;25002;-73
2023/02/06 01:42:15;;;;;;;20.88;17.85;;;;;;;0.29;100.00;97727.50;5096547;28;24437;-71
2023/02/06 01:44:42;;;;;;;22.00;17.90;;;;;;;0.31;100.00;97736.03;5093331;28;24839;-73
2023/02/06 01:47:10;;;;;;;23.60;18.48;;;;;;;0.31;100.00;97725.81;5095046;28;24433;-71
2023/02/06 01:49:39;;;;;;;25.85;18.48;;;;;;;0.18;100.00;97725.69;5098136;28;24514;-73
2023/02/06 01:52:15;;;;;;;25.77;17.85;;;;;;;0.44;100.00;97713.16;5094600;28;24448;-73
2023/02/06 01:54:43;;;;;;;24.40;17.52;;;;;;;0.39;100.00;97712.28;5097857;28;24469;-73
2023/02/06 01:57:11;;;;;;;33.72;18.17;;;;;;;0.41;100.00;97707.22;5083587;28;24437;-73
2023/02/06 01:59:42;;;;;;;22.58;18.10;;;;;;;0.32;100.00;97713.09;5097417;28;24442;-74
2023/02/06 02:02:08;;;;;;;24.00;17.43;;;;;;;0.57;100.00;97709.03;5084780;28;24523;-73
2023/02/06 02:04:35;;;;;;;24.80;17.33;;;;;;;0.37;100.00;97715.66;5096908;28;24461;-73
2023/02/06 02:07:07;;;;;;;25.05;17.35;;;;;;;0.31;100.00;97721.56;5088947;28;24801;-73
2023/02/06 02:09:35;;;;;;;28.75;16.77;;;;;;;0.50;100.00;97721.72;5092268;28;24449;-73
2023/02/06 02:12:02;;;;;;;20.17;18.17;;;;;;;0.51;100.00;97711.53;5096126;28;24801;-72
2023/02/06 02:14:28;;;;;;;30.48;17.48;;;;;;;0.46;100.00;97708.97;5090949;28;24441;-73
2023/02/06 02:17:06;;;;;;;25.38;18.52;;;;;;;0.39;100.00;97719.09;5102388;28;25175;-74
2023/02/06 02:20:02;;;;;;;31.10;18.08;;;;;;;0.56;100.00;97709.03;5100164;28;24442;-73
2023/02/06 02:22:44;;;;;;;31.35;18.83;;;;;;;0.50;100.00;97707.28;5103369;28;24438;-73
2023/02/06 02:25:40;;;;;;;41.83;18.15;;;;;;;0.68;100.00;97709.13;5104098;28;24804;-73
2023/02/06 02:28:37;;;;;;;35.63;18.17;;;;;;;0.60;100.00;97713.31;5090481;28;24816;-73
2023/02/06 02:31:31;;;;;;;29.40;19.67;;;;;;;0.28;100.00;97710.50;5098975;28;24441;-73
2023/02/06 02:34:31;;;;;;;41.38;18.90;;;;;;;0.28;100.00;97713.03;5085020;28;24438;-73
2023/02/06 02:37:02;;;;;;;26.92;19.73;;;;;;;0.24;100.00;97707.06;5079838;28;24437;-73
2023/02/06 02:39:37;;;;;;;35.67;18.38;;;;;;;0.33;100.00;97708.84;5091062;28;24439;-74
2023/02/06 02:42:11;;;;;;;34.20;18.98;;;;;;;0.17;100.00;97707.84;5095667;28;24434;-73
2023/02/06 02:44:47;;;;;;;36.90;18.98;;;;;;;0.17;100.00;97702.75;5101987;28;24462;-73
2023/02/06 02:47:17;;;;;;;37.38;18.23;;;;;;;0.37;100.00;97705.47;5103290;28;24440;-73
2023/02/06 02:49:45;;;;;;;38.15;18.92;;;;;;;0.14;100.00;97707.81;5096392;28;24792;-73
2023/02/06 02:52:14;;;;;;;40.75;19.88;;;;;;;0.16;100.00;97701.06;5098511;28;24433;-74
2023/02/06 02:54:40;;;;;;;29.50;18.85;;;;;;;0.15;100.00;97696.78;5103746;28;24442;-73
2023/02/06 02:57:13;;;;;;;23.38;20.23;;;;;;;0.11;100.00;97702.69;5090128;28;24445;-72
2023/02/06 02:59:44;;;;;;;34.90;19.75;;;;;;;0.53;100.00;97697.13;5099655;28;24460;-73
2023/02/06 03:02:13;;;;;;;37.00;20.30;;;;;;;0.31;100.00;97697.78;5087420;28;24515;-74
2023/02/06 03:04:44;;;;;;;34.67;20.33;;;;;;;0.57;100.00;97700.53;5093562;28;24458;-73
2023/02/06 03:07:23;;;;;;;28.60;19.80;;;;;;;0.49;100.00;97708.13;5084826;28;24442;-73
2023/02/06 03:10:01;;;;;;;30.95;20.65;;;;;;;0.46;100.00;97698.75;5093295;28;24441;-73
2023/02/06 03:12:38;;;;;;;37.72;18.90;;;;;;;0.34;100.00;97692.72;5091542;28;24438;-73
2023/02/06 03:15:13;;;;;;;30.15;20.23;;;;;;;0.35;100.00;97691.88;5099343;28;24509;-72
2023/02/06 03:17:46;;;;;;;35.75;20.52;;;;;;;0.48;100.00;97689.44;5098139;28;24442;-73
2023/02/06 03:20:14;;;;;;;46.17;20.48;;;;;;;0.48;100.00;97683.47;5100354;28;24430;-73
2023/02/06 03:22:47;;;;;;;23.25;20.08;;;;;;;0.22;100.00;97679.03;5098832;28;24434;-73
2023/02/06 03:25:20;;;;;;;48.72;21.90;;;;;;;0.38;100.00;97685.09;5102876;28;24460;-72
2023/02/06 03:27:47;;;;;;;32.72;20.25;;;;;;;0.36;100.00;97685.91;5096309;28;24441;-72
2023/02/06 03:30:17;;;;;;;34.75;19.65;;;;;;;0.26;100.00;97682.47;5095817;28;24434;-73
2023/02/06 03:32:49;;;;;;;38.10;21.33;;;;;;;0.18;100.00;97689.16;5103839;28;24541;-71
2023/02/06 03:35:19;;;;;;;42.08;22.58;;;;;;;0.34;100.00;97687.63;5106810;28;24433;-73
2023/02/06 03:37:49;;;;;;;26.73;20.88;;;;;;;0.34;100.00;97678.28;5101274;28;24425;-73
2023/02/06 03:40:17;;;;;;;29.15;20.67;;;;;;;0.30;100.00;97688.41;5087317;28;24437;-73
2023/02/06 03:42:48;;;;;;;30.08;22.38;;;;;;;0.14;100.00;97689.97;5100847;28;24430;-73
2023/02/06 03:45:20;;;;;;;35.55;22.25;;;;;;;0.07;100.00;97688.22;5093274;28;24457;-73
2023/02/06 03:47:49;;;;;;;36.33;22.42;;;;;;;0.04;100.00;97690.72;5098478;28;24441;-73
2023/02/06 03:50:17;;;;;;;29.67;21.48;;;;;;;0.11;100.00;97695.94;5090661;28;24446;-73
2023/02/06 03:52:46;;;;;;;47.20;21.67;;;;;;;-0.06;100.00;97698.31;5106508;28;24785;-73
2023/02/06 03:55:19;;;;;;;29.17;21.10;;;;;;;-0.06;100.00;97694.91;5103013;28;24446;-73
2023/02/06 03:57:51;;;;;;;35.92;22.73;;;;;;;-0.13;100.00;97695.69;5096454;28;24525;-72
2023/02/06 04:00:17;;;;;;;25.80;21.08;;;;;;;-0.07;100.00;97694.06;5099153;28;24438;-73
2023/02/06 04:02:46;;;;;;;28.02;22.13;;;;;;;0.06;100.00;97689.91;5088782;28;24527;-73
2023/02/06 04:05:12;;;;;;;26.43;20.83;;;;;;;0.01;100.00;97689.03;5098414;28;24862;-72
2023/02/06 04:07:39;;;;;;;42.85;21.67;;;;;;;0.15;100.00;97700.22;5084946;28;24439;-73
2023/02/06 04:10:06;;;;;;;33.45;21.80;;;;;;;0.27;100.00;97691.81;5106760;28;24433;-72
2023/02/06 04:12:34;;;;;;;28.90;21.83;;;;;;;0.29;100.00;97690.13;5094004;28;25029;-73
2023/02/06 04:15:00;;;;;;;36.22;23.13;;;;;;;0.17;100.00;97700.22;5102074;28;24438;-73
2023/02/06 04:17:27;;;;;;;24.02;21.05;;;;;;;0.20;100.00;97702.78;5094264;28;24438;-71
2023/02/06 04:19:53;;;;;;;36.38;21.80;;;;;;;0.13;100.00;97701.88;5092315;28;24791;-72
2023/02/06 04:22:19;;;;;;;33.20;21.75;;;;;;;0.21;100.00;97692.59;5096023;28;24781;-73
2023/02/06 04:24:46;;;;;;;39.95;20.70;;;;;;;0.11;100.00;97688.28;5096457;28;24445;-73
2023/02/06 04:27:14;;;;;;;26.20;21.15;;;;;;;0.03;100.00;97694.13;5100871;28;24425;-73
2023/02/06 04:29:42;;;;;;;28.65;22.13;;;;;;;0.06;100.00;97696.72;5104050;28;24813;-73
2023/02/06 04:32:09;;;;;;;49.33;22.08;;;;;;;-0.08;100.00;97684.69;5102162;28;24520;-73
2023/02/06 04:34:37;;;;;;;28.73;21.43;;;;;;;0.06;100.00;97683.97;5088790;28;24442;-73
2023/02/06 04:37:04;;;;;;;43.10;22.50;;;;;;;-0.23;100.00;97696.41;5097744;28;24426;-73
2023/02/06 04:39:30;;;;;;;33.15;20.85;;;;;;;-0.04;100.00;97693.22;5094923;28;24444;-73
2023/02/06 04:41:57;;;;;;;32.47;20.50;;;;;;;-0.01;100.00;97693.25;5102642;28;24434;-73
2023/02/06 04:44:24;;;;;;;24.15;21.52;;;;;;;-0.08;100.00;97691.47;5095529;28;24444;-72
2023/02/06 04:46:51;;;;;;;37.85;21.73;;;;;;;-0.07;100.00;97685.56;5090784;28;25013;-73
2023/02/06 04:49:18;;;;;;;50.40;23.10;;;;;;;-0.21;100.00;97693.06;5097562;28;24792;-72
2023/02/06 04:51:44;;;;;;;35.30;23.05;;;;;;;0.02;100.00;97693.28;5093747;28;24867;-73
2023/02/06 04:54:13;;;;;;;38.15;22.42;;;;;;;0.04;100.00;97686.53;5101165;28;24441;-73
2023/02/06 04:56:40;;;;;;;34.22;22.98;;;;;;;0.16;100.00;97681.53;5092109;28;24988;-74
2023/02/06 04:59:06;;;;;;;24.63;21.77;;;;;;;0.06;100.00;97683.97;5089940;28;24445;-73
2023/02/06 05:01:33;;;;;;;28.25;22.10;;;;;;;0.07;100.00;97694.16;5100178;28;24804;-71
2023/02/06 05:04:01;;;;;;;29.08;21.77;;;;;;;0.34;100.00;97688.47;5090236;28;24437;-73
2023/02/06 05:06:28;;;;;;;27.63;22.45;;;;;;;0.32;100.00;97696.94;5091870;28;24996;-73
2023/02/06 05:08:55;;;;;;;32.93;24.93;;;;;;;0.07;100.00;97696.72;5102509;28;24528;-73
2023/02/06 05:11:21;;;;;;;27.83;22.63;;;;;;;0.49;100.00;97685.19;5101241;28;24442;-73
2023/02/06 05:13:48;;;;;;;28.83;23.17;;;;;;;0.20;100.00;97693.44;5091608;28;24435;-73
2023/02/06 05:16:16;;;;;;;27.23;22.35;;;;;;;0.15;100.00;97700.22;5096747;28;24441;-72
2023/02/06 05:18:44;;;;;;;29.27;24.02;;;;;;;0.10;100.00;97690.78;5100674;28;25088;-73
2023/02/06 05:21:14;;;;;;;26.40;23.38;;;;;;;0.21;100.00;97690.03;5097126;28;24430;-73
2023/02/06 05:23:40;;;;;;;29.73;23.33;;;;;;;0.14;100.00;97700.19;5106724;28;24836;-73
2023/02/06 05:26:07;;;;;;;27.40;23.73;;;;;;;0.33;100.00;97694.38;5097460;28;24450;-73
2023/02/06 05:28:33;;;;;;;30.30;23.92;;;;;;;0.28;100.00;97697.75;5092302;28;24442;-74
2023/02/06 05:31:00;;;;;;;38.35;25.98;;;;;;;0.40;100.00;97695.31;5101796;28;24442;-74
2023/02/06 05:33:26;;;;;;;33.55;25.88;;;;;;;0.17;100.00;97706.16;5090485;28;25003;-75
2023/02/06 05:35:53;;;;;;;33.90;27.13;;;;;;;0.43;100.00;97703.81;5107492;28;24429;-74
2023/02/06 05:38:21;;;;;;;37.33;26.58;;;;;;;0.13;100.00;97699.31;5080795;28;24445;-72
2023/02/06 05:40:50;;;;;;;37.47;27.70;;;;;;;0.12;100.00;97705.28;5084056;28;24444;-73
2023/02/06 05:43:17;;;;;;;36.97;27.40;;;;;;;0.36;100.00;97707.16;5092471;28;25025;-74
2023/02/06 05:45:43;;;;;;;35.25;26.27;;;;;;;0.31;100.00;97706.28;5096668;28;24975;-73
2023/02/06 05:48:10;;;;;;;30.88;25.23;;;;;;;0.19;100.00;97712.13;5103310;28;25022;-74
2023/02/06 05:50:36;;;;;;;34.08;26.60;;;;;;;0.25;100.00;97708.75;5101923;28;24432;-73
2023/02/06 05:53:03;;;;;;;31.17;26.38;;;;;;;0.19;100.00;97712.13;5107058;28;24434;-73
2023/02/06 05:55:30;;;;;;;33.10;26.37;;;;;;;0.47;100.00;97710.66;5084979;28;24800;-72
2023/02/06 05:57:57;;;;;;;36.35;28.75;;;;;;;0.33;100.00;97712.22;5092729;28;24441;-72
2023/02/06 06:00:24;;;;;;;38.07;28.53;;;;;;;0.10;100.00;97722.22;5094670;28;24434;-73
2023/02/06 06:02:50;;;;;;;40.22;28.23;;;;;;;0.37;100.00;97708.00;5100050;28;25006;-73
2023/02/06 06:05:17;;;;;;;32.40;27.40;;;;;;;0.15;100.00;97725.69;5094139;28;25003;-73
2023/02/06 06:07:43;;;;;;;36.40;27.83;;;;;;;0.17;100.00;97725.69;5088108;28;24430;-73
2023/02/06 06:10:11;;;;;;;35.67;29.20;;;;;;;0.14;100.00;97723.09;5102545;28;24441;-73
2023/02/06 06:12:38;;;;;;;39.67;27.98;;;;;;;0.11;100.00;97723.06;5105160;28;24437;-73
2023/02/06 06:15:06;;;;;;;33.15;27.17;;;;;;;0.07;100.00;97718.78;5093535;28;25010;-73
2023/02/06 06:17:32;;;;;;;41.95;27.23;;;;;;;0.33;100.00;97722.44;5097565;28;24437;-72
2023/02/06 06:19:59;;;;;;;32.55;26.10;;;;;;;0.14;100.00;97716.31;5095156;28;24525;-74
2023/02/06 06:22:27;;;;;;;39.80;27.90;;;;;;;-0.02;100.00;97717.88;5097099;28;24525;-73
2023/02/06 06:24:54;;;;;;;39.00;27.70;;;;;;;-0.08;100.00;97706.75;5099992;28;24523;-73
2023/02/06 06:27:20;;;;;;;32.53;26.90;;;;;;;-0.07;100.00;97711.03;5095563;28;24457;-73
2023/02/06 06:29:48;;;;;;;30.52;26.15;;;;;;;-0.01;100.00;97709.38;5099364;28;24441;-73
2023/02/06 06:32:14;;;;;;;32.93;25.90;;;;;;;-0.10;100.00;97709.31;5099546;28;24761;-73
2023/02/06 06:34:41;;;;;;;31.48;25.90;;;;;;;-0.13;100.00;97711.81;5100206;28;24450;-76
2023/02/06 06:37:07;;;;;;;32.80;26.42;;;;;;;-0.01;100.00;97711.06;5103364;28;25013;-75
2023/02/06 06:39:34;;;;;;;31.77;26.25;;;;;;;-0.09;100.00;97707.59;5096934;28;24788;-76
2023/02/06 06:42:03;;;;;;;30.00;25.73;;;;;;;-0.09;100.00;97728.81;5087741;28;24442;-75
2023/02/06 06:44:29;;;;;;;30.02;26.08;;;;;;;0.01;100.00;97734.03;5085897;28;24499;-75
2023/02/06 06:46:57;;;;;;;31.25;27.30;;;;;;;-0.04;100.00;97741.59;5099095;28;24464;-75
2023/02/06 06:49:23;;;;;;;34.30;27.23;;;;;;;0.02;100.00;97736.59;5099270;28;24441;-76
2023/02/06 06:51:50;;;;;;;35.67;27.17;;;;;;;-0.08;100.00;97740.72;5094205;28;24441;-76
2023/02/06 06:54:18;;;;;;;31.95;26.67;;;;;;;-0.06;100.00;97728.00;5096989;28;24999;-76
2023/02/06 06:56:44;;;;;;;32.97;25.70;;;;;;;-0.16;100.00;97731.28;5092236;28;24486;-75
2023/02/06 06:59:11;;;;;;;33.85;26.85;;;;;;;-0.17;100.00;97727.91;5091593;28;24937;-76
2023/02/06 07:01:37;;;;;;;32.27;25.80;;;;;;;-0.15;100.00;97721.16;5091909;28;24994;-75
2023/02/06 07:04:05;;;;;;;31.63;25.42;;;;;;;-0.06;100.00;97728.88;5094462;28;24966;-76
2023/02/06 07:06:32;;;;;;;30.83;24.55;;;;;;;0.17;100.00;97731.63;5086312;28;25027;-76
2023/02/06 07:08:59;;;;;;;33.67;27.92;;;;;;;0.27;100.00;97716.44;5097691;28;24434;-76
2023/02/06 07:11:25;;;;;;;35.03;27.92;;;;;;;0.28;100.00;97707.94;5102506;28;24941;-76
2023/02/06 07:13:52;;;;;;;32.85;26.42;;;;;;;-0.06;100.00;97703.41;5091095;28;24523;-76
2023/02/06 07:16:18;;;;;;;39.23;29.40;;;;;;;-0.19;100.00;97700.69;5081141;28;24442;-75
2023/02/06 07:18:45;;;;;;;32.73;26.17;;;;;;;-0.16;100.00;97699.03;5092591;28;24429;-75
2023/02/06 07:21:14;;;;;;;33.95;27.20;;;;;;;-0.18;100.00;97710.91;5099313;28;24994;-75
2023/02/06 07:23:41;;;;;;;29.23;26.13;;;;;;;0.01;100.00;97716.19;5088701;28;24438;-75
2023/02/06 07:26:07;;;;;;;31.10;25.83;;;;;;;0.11;100.00;97723.94;5086587;28;24457;-76
2023/02/06 07:28:34;;;;;;;31.02;26.35;;;;;;;0.31;100.00;97724.13;5086885;28;24415;-76
2023/02/06 07:31:01;;;;;;;38.70;26.30;;;;;;;0.18;100.00;97723.13;5107858;28;24434;-76
2023/02/06 07:33:28;;;;;;;30.85;25.27;;;;;;;0.02;100.00;97738.28;5093778;28;24435;-76
2023/02/06 07:35:54;;;;;;;29.20;25.00;;;;;;;-0.03;100.00;97731.44;5109077;28;24803;-76
2023/02/06 07:38:22;;;;;;;34.08;26.13;;;;;;;0.17;100.00;97735.88;5092017;28;24453;-76
2023/02/06 07:40:49;;;;;;;29.70;25.33;;;;;;;0.17;100.00;97738.44;5078910;28;24461;-74
2023/02/06 07:43:15;;;;;;;27.87;24.87;;;;;;;0.23;100.00;97748.69;5096736;28;24437;-76
2023/02/06 07:45:42;;;;;;;29.35;24.85;;;;;;;0.05;100.00;97746.81;5089393;28;25018;-76
2023/02/06 07:48:09;;;;;;;27.05;23.38;;;;;;;-0.04;100.00;97755.22;5086524;28;24462;-76
2023/02/06 07:50:35;;;;;;;30.90;25.63;;;;;;;0.07;100.00;97747.66;5089515;28;24808;-74
2023/02/06 07:53:02;;;;;;;27.80;24.80;;;;;;;0.00;100.00;97745.91;5079767;28;24470;-76
2023/02/06 07:55:30;;;;;;;27.30;24.40;;;;;;;0.02;100.00;97753.56;5087801;28;24492;-76
2023/02/06 07:57:56;;;;;;;26.77;23.87;;;;;;;0.16;100.00;97746.91;5087224;28;24466;-75
2023/02/06 08:00:23;;;;;;;28.75;23.23;;;;;;;0.23;100.00;97749.53;5090611;28;25014;-75
2023/02/06 08:02:49;;;;;;;24.88;22.02;;;;;;;0.39;100.00;97744.56;5093502;28;24425;-75
2023/02/06 08:05:17;;;;;;;28.55;21.92;;;;;;;0.20;100.00;97744.41;5090579;28;24442;-76
2023/02/06 08:07:43;;;;;;;32.30;23.85;;;;;;;0.55;100.00;97733.66;5088476;28;24544;-73
2023/02/06 08:10:10;;;;;;;29.47;23.37;;;;;;;0.64;100.00;97725.25;5086424;28;24453;-74
2023/02/06 08:12:38;;;;;;;28.30;23.77;;;;;;;0.47;100.00;97720.00;5088084;28;25010;-74
2023/02/06 08:15:05;;;;;;;28.40;22.67;;;;;;;0.71;100.00;97724.44;5094437;28;24445;-76
2023/02/06 08:17:31;;;;;;;25.42;22.83;;;;;;;0.68;100.00;97716.78;5094422;28;24446;-76
2023/02/06 08:19:58;;;;;;;26.92;20.95;;;;;;;0.62;100.00;97714.16;5095231;28;24434;-75
2023/02/06 08:22:24;;;;;;;30.00;23.95;;;;;;;0.40;100.00;97710.59;5078950;28;24443;-76
2023/02/06 08:24:51;;;;;;;29.83;23.30;;;;;;;0.59;100.00;97717.53;5100997;28;24438;-76
2023/02/06 08:27:17;;;;;;;28.20;25.00;;;;;;;0.66;100.00;97716.75;5098870;28;24457;-76
2023/02/06 08:29:45;;;;;;;28.92;23.58;;;;;;;0.51;100.00;97720.88;5106188;28;25005;-75
2023/02/06 08:32:12;;;;;;;26.40;23.00;;;;;;;0.32;100.00;97718.19;5098134;28;24824;-76
2023/02/06 08:34:39;;;;;;;26.15;23.35;;;;;;;0.35;100.00;97715.66;5101361;28;24445;-76
2023/02/06 08:37:05;;;;;;;26.02;21.52;;;;;;;0.26;100.00;97709.63;5102418;28;24434;-76
2023/02/06 08:39:32;;;;;;;24.40;21.83;;;;;;;0.19;100.00;97711.28;5098806;28;24445;-76
2023/02/06 08:41:58;;;;;;;28.73;22.90;;;;;;;0.24;100.00;97710.47;5088087;28;24438;-76
2023/02/06 08:44:25;;;;;;;24.38;21.75;;;;;;;0.15;100.00;97705.31;5094465;28;24438;-76
2023/02/06 08:46:53;;;;;;;24.63;21.50;;;;;;;0.45;100.00;97711.50;5096206;28;24465;-76
2023/02/06 08:49:22;;;;;;;25.48;20.02;;;;;;;0.71;100.00;97720.19;5098680;28;24797;-75
2023/02/06 08:51:49;;;;;;;24.10;19.02;;;;;;;0.45;100.00;97716.59;5100769;28;24441;-75
2023/02/06 08:54:18;;;;;;;20.98;18.23;;;;;;;0.64;100.00;97718.44;5099418;28;24440;-75
2023/02/06 08:56:45;;;;;;;21.52;18.70;;;;;;;0.55;100.00;97722.59;5094489;28;24997;-76
2023/02/06 08:59:13;;;;;;;18.15;16.25;;;;;;;0.34;100.00;97719.06;5101212;28;24437;-76
2023/02/06 09:01:40;;;;;;;20.38;16.60;;;;;;;0.31;100.00;97724.13;5092254;28;24441;-76
2023/02/06 09:04:09;;;;;;;21.05;17.60;;;;;;;0.42;100.00;97717.41;5095335;28;24442;-76
2023/02/06 09:06:38;;;;;;;22.55;17.13;;;;;;;0.41;100.00;97714.88;5097636;28;24452;-76
2023/02/06 09:09:05;;;;;;;19.58;17.48;;;;;;;0.46;100.00;97710.66;5087613;28;24801;-76
2023/02/06 09:11:32;;;;;;;19.05;17.13;;;;;;;0.45;100.00;97720.00;5102265;28;24441;-76
2023/02/06 09:14:00;;;;;;;19.33;16.20;;;;;;;0.53;100.00;97716.66;5086458;28;24844;-76
2023/02/06 09:16:28;;;;;;;20.08;16.95;;;;;;;0.64;100.00;97726.09;5094938;28;24445;-76
2023/02/06 09:19:00;;;;;;;20.10;16.73;;;;;;;0.45;100.00;97727.66;5091261;28;24524;-76
2023/02/06 09:21:29;;;;;;;21.45;17.70;;;;;;;0.39;100.00;97740.34;5095034;28;24539;-76
2023/02/06 09:23:58;;;;;;;20.27;17.38;;;;;;;0.34;100.00;97736.91;5093824;28;24429;-76
2023/02/06 09:26:27;;;;;;;22.20;17.10;;;;;;;0.21;100.00;97732.53;5105970;28;24526;-77
2023/02/06 09:28:55;;;;;;;19.10;17.00;;;;;;;0.21;100.00;97735.91;5091002;28;24426;-76
2023/02/06 09:31:21;;;;;;;24.15;18.35;;;;;;;0.29;100.00;97723.25;5098268;28;24788;-76
2023/02/06 09:33:48;;;;;;;24.80;19.08;;;;;;;0.46;100.00;97718.31;5093420;28;24438;-76
2023/02/06 09:36:17;;;;;;;19.83;17.70;;;;;;;0.40;100.00;97714.00;5100621;28;24978;-76
2023/02/06 09:38:47;;;;;;;20.07;17.77;;;;;;;0.28;100.00;97716.44;5101144;28;24514;-76
2023/02/06 09:41:18;;;;;;;18.77;16.70;;;;;;;0.34;100.00;97719.06;5093772;28;24991;-76
2023/02/06 09:43:57;;;;;;;17.88;15.98;;;;;;;0.55;100.00;97709.88;5095772;28;24429;-76
2023/02/06 09:46:30;;;;;;;17.35;15.63;;;;;;;0.62;100.00;97706.50;5095631;28;25002;-76
2023/02/06 09:48:58;;;;;;;17.52;14.85;;;;;;;0.59;100.00;97711.59;5101580;28;24434;-77
2023/02/06 09:51:34;;;;;;;16.73;14.90;;;;;;;0.67;100.00;97700.63;5089746;28;24505;-75
2023/02/06 09:54:10;;;;;;;19.95;14.10;;;;;;;0.65;100.00;97702.28;5098155;28;25021;-78
2023/02/06 09:56:45;;;;;;;18.02;13.43;;;;;;;0.63;100.00;97688.69;5094753;28;24437;-76
2023/02/06 09:59:17;;;;;;;14.48;12.90;;;;;;;0.69;100.00;97678.53;5093379;28;24437;-76
2023/02/06 10:01:51;;;;;;;18.38;12.75;;;;;;;0.75;100.00;97677.72;5097471;28;24451;-76
2023/02/06 10:04:34;;;;;;;13.13;11.67;;;;;;;1.03;100.00;97688.91;5095172;28;24533;-76
2023/02/06 10:07:13;;;;;;;14.30;10.75;;;;;;;0.99;100.00;97678.69;5095210;28;24511;-75
2023/02/06 10:09:45;;;;;;;13.85;10.85;;;;;;;1.00;100.00;97678.69;5096768;28;24429;-76
2023/02/06 10:12:16;;;;;;;14.25;10.55;;;;;;;0.98;100.00;97680.41;5097332;28;24430;-75
2023/02/06 10:14:46;;;;;;;15.15;11.02;;;;;;;0.84;100.00;97669.25;5092359;28;25001;-76
2023/02/06 10:17:20;;;;;;;9.77;8.77;;;;;;;0.81;100.00;97675.19;5098190;28;24429;-76
2023/02/06 10:19:50;;;;;;;10.82;9.43;;;;;;;0.94;100.00;97671.88;5090879;28;24430;-76
2023/02/06 10:22:23;;;;;;;12.70;10.45;;;;;;;0.92;100.00;97662.50;5092599;28;24442;-76
2023/02/06 10:25:03;;;;;;;10.65;9.05;;;;;;;0.96;100.00;97661.66;5081093;28;24445;-76
2023/02/06 10:27:33;;;;;;;10.82;8.73;;;;;;;0.97;100.00;97653.19;5094602;28;24453;-76
2023/02/06 10:30:00;;;;;;;10.80;8.43;;;;;;;1.26;100.00;97663.53;5094518;28;24477;-76
2023/02/06 10:32:41;;;;;;;9.95;6.45;;;;;;;1.39;100.00;97660.16;5102768;28;24441;-76
2023/02/06 10:35:34;;;;;;;8.95;7.13;;;;;;;1.04;100.00;97664.25;5099732;28;24444;-76
2023/02/06 10:38:29;;;;;;;6.32;4.18;;;;;;;0.86;100.00;97648.03;5098438;28;24433;-76
2023/02/06 10:41:06;;;;;;;6.38;4.18;;;;;;;0.92;100.00;97644.63;5016867;28;24522;-76
2023/02/06 10:43:40;;;;;;;5.45;3.38;;;;;;;1.08;100.00;97638.78;5097790;28;24446;-77
2023/02/06 10:46:23;;;;;;;5.18;3.53;;;;;;;0.82;100.00;97635.25;5087669;28;24433;-76
2023/02/06 10:48:57;;;;;;;5.33;3.63;;;;;;;0.89;100.00;97631.88;5095447;28;24501;-76
2023/02/06 10:51:29;;;;;;;5.05;3.67;;;;;;;1.09;100.00;97635.38;5103114;28;24429;-76
2023/02/06 10:54:00;;;;;;;5.60;3.30;;;;;;;0.95;100.00;97640.41;5109008;28;24438;-76
2023/02/06 10:56:33;;;;;;;4.97;3.50;;;;;;;1.06;100.00;97630.25;5100781;28;24513;-75
2023/02/06 10:59:04;;;;;;;5.85;3.88;;;;;;;1.21;100.00;97639.69;5110295;28;24801;-74
2023/02/06 11:01:34;;;;;;;5.68;3.40;;;;;;;1.01;100.00;97633.66;5095005;28;24438;-75
2023/02/06 11:04:06;;;;;;;5.73;4.10;;;;;;;0.93;100.00;97631.91;5090983;28;24446;-75
2023/02/06 11:06:32;;;;;;;6.38;4.47;;;;;;;1.14;100.00;97635.38;5091815;28;24434;-75
2023/02/06 11:08:59;;;;;;;4.82;3.83;;;;;;;0.88;100.00;97636.13;5101221;28;24452;-75
2023/02/06 11:11:29;;;;;;;4.68;4.28;;;;;;;0.83;100.00;97629.31;5099174;28;24784;-75
2023/02/06 11:14:01;;;;;;;5.77;4.27;;;;;;;0.87;100.00;97626.75;5097872;28;24453;-75
2023/02/06 11:16:29;;;;;;;6.60;4.70;;;;;;;0.77;100.00;97624.16;5092211;28;24430;-75
2023/02/06 11:19:00;;;;;;;7.55;5.18;;;;;;;0.92;100.00;97622.53;5102726;28;24437;-75
2023/02/06 11:21:52;;;;;;;6.05;4.60;;;;;;;0.82;100.00;97618.25;5095029;28;24827;-75
2023/02/06 11:24:21;;;;;;;7.53;4.87;;;;;;;0.90;100.00;97618.28;5098436;28;24438;-75
2023/02/06 11:26:53;;;;;;;7.77;4.93;;;;;;;1.12;100.00;97607.31;5104797;28;24437;-75